M I D A S
Marine Information and Data Acquisition System
Tripno 1974 of the Zeeleeuw from 2010-10-18 06:53:57 to 2010-10-18 15:41:18
Back to CruiseResearch ActivitiesStationsMapUnderway DataData graphs

EquipmentUnitsComments
TimeDGPSUTC
LatitudeDGPSDM.mWGS84
LongitudeDGPSDM.mWGS84
SpeedMeteo Stationm/sRelative wind speed
DirectionMeteo StationdegRelative wind direction
TemperatureMeteo Stationdeg CelciusAir temperature
PressureMeteo StationPaAtmospheric pressure
HumidityMeteo Station%Relative humidity
Missing or incorrect values are displayed as -999
Metereological data collected by the RV Zeeleeuw from 2010-10-18 06:22:17 to 2010-10-18 15:50:19
Time Latitude Longitude Speed Direction Temperature Pressure Humidity
2010-10-18 06:23 51°13.663 2°55.958 0.8 8 5.7 102180 42
2010-10-18 06:24 51°13.663 2°55.958 4 13 5.7 102170 43
2010-10-18 06:25 51°13.664 2°55.96 3 8 5.7 102180 41
2010-10-18 06:26 51°13.663 2°55.961 3.1 24 5.8 102180 42
2010-10-18 06:27 51°13.662 2°55.959 2.9 16 5.8 102180 44
2010-10-18 06:28 51°13.662 2°55.959 2 10 5.8 102180 44
2010-10-18 06:29 51°13.662 2°55.959 2 19 5.8 102170 42
2010-10-18 06:30 51°13.663 2°55.959 1.9 11 5.8 102180 42
2010-10-18 06:31 51°13.663 2°55.96 2.4 11 5.8 102170 43
2010-10-18 06:32 51°13.663 2°55.96 1.5 15 5.8 102180 42
2010-10-18 06:33 51°13.663 2°55.96 2.7 10 5.8 102180 43
2010-10-18 06:34 51°13.662 2°55.961 1.1 8 5.9 102180 41
2010-10-18 06:35 51°13.662 2°55.96 1.6 8 5.9 102180 42
2010-10-18 06:36 51°13.662 2°55.961 3.5 16 5.9 102180 42
2010-10-18 06:37 51°13.663 2°55.96 2.3 8 5.9 102180 43
2010-10-18 06:38 51°13.662 2°55.96 2.6 9 5.9 102180 41
2010-10-18 06:39 51°13.663 2°55.96 2.9 8 5.9 102180 41
2010-10-18 06:40 51°13.662 2°55.96 0.3 13 5.9 102180 43
2010-10-18 06:41 51°13.662 2°55.96 3.3 6 6 102180 43
2010-10-18 06:42 51°13.662 2°55.959 2 24 5.9 102180 41
2010-10-18 06:43 51°13.663 2°55.959 2.2 23 6 102180 43
2010-10-18 06:44 51°13.662 2°55.959 0.5 14 6 102180 41
2010-10-18 06:45 51°13.663 2°55.959 1.8 19 6 102180 40
2010-10-18 06:46 51°13.663 2°55.96 3.2 13 6 102180 41
2010-10-18 06:47 51°13.663 2°55.96 2.7 -999 6 102180 42
2010-10-18 06:48 51°13.663 2°55.959 3.6 13 6 102180 40
2010-10-18 06:49 51°13.662 2°55.96 3 9 -999 -999 -999
2010-10-18 06:50 51°13.662 2°55.96 2.5 3 6 102180 41
2010-10-18 06:51 51°13.662 2°55.96 2.5 357 6 102180 41
2010-10-18 06:52 51°13.663 2°55.96 2 13 6 102180 43
2010-10-18 06:53 51°13.663 2°55.96 3.7 18 6 102190 42
2010-10-18 06:54 51°13.663 2°55.961 2.5 10 6 102190 42
2010-10-18 06:55 51°13.663 2°55.961 2.5 12 6 102190 39
2010-10-18 06:56 51°13.663 2°55.961 2.9 8 6 102190 42
2010-10-18 06:57 51°13.662 2°55.962 3.8 11 6.1 102190 42
2010-10-18 06:58 51°13.662 2°55.961 2 16 6.1 102190 40
2010-10-18 06:59 51°13.661 2°55.961 2.9 21 6.1 102190 41
2010-10-18 07:00 51°13.661 2°55.962 2.5 19 6.1 102190 41
2010-10-18 07:01 51°13.66 2°55.961 1.8 13 6.1 102190 41
2010-10-18 07:02 51°13.677 2°55.898 2.3 32 6.2 102190 41
2010-10-18 07:03 51°13.696 2°55.786 3.2 30 6.2 102180 40
2010-10-18 07:04 51°13.698 2°55.739 2.6 39 6.2 102180 40
2010-10-18 07:05 51°13.718 2°55.744 1.1 73 6.3 102190 41
2010-10-18 07:05 51°13.748 2°55.72 2.1 38 6.3 102190 41
2010-10-18 07:07 51°13.748 2°55.72 1.8 286 6.3 102190 42
2010-10-18 07:08 51°13.748 2°55.72 2 22 6.3 102190 41
2010-10-18 07:09 51°14.154 2°55.383 2.5 285 6.3 102190 40
2010-10-18 07:10 51°14.289 2°55.264 5.9 281 6.4 102180 42
2010-10-18 07:11 51°14.45 2°55.113 6.1 284 6.4 102180 39
2010-10-18 07:12 51°14.621 2°54.944 6 20 6.5 102170 42
2010-10-18 07:13 51°14.754 2°54.715 10.3 18 6.7 102160 42
2010-10-18 07:14 51°14.692 2°54.466 11.8 283 6.9 102140 43
2010-10-18 07:15 51°14.574 2°54.241 11.9 284 7 102140 41
2010-10-18 07:16 51°14.458 2°54.006 12 283 7.1 102140 41
2010-10-18 07:17 51°14.34 2°53.773 12.3 322 7.2 102150 42
2010-10-18 07:18 51°14.221 2°53.539 11.2 282 7.2 102150 42
2010-10-18 07:19 51°14.103 2°53.304 11.3 281 7.1 102150 40
2010-10-18 07:20 51°13.997 2°53.055 11.1 322 7 102140 41
2010-10-18 07:21 51°13.891 2°52.804 10.7 322 7 102140 42
2010-10-18 07:22 51°13.791 2°52.546 10.2 322 6.9 102150 43
2010-10-18 07:23 51°13.702 2°52.297 9.6 285 6.9 102140 42
2010-10-18 07:24 51°13.645 2°52.175 8.2 316 6.9 102160 42
2010-10-18 07:25 51°13.61 2°52.041 9.1 284 6.9 102160 42
2010-10-18 07:26 51°13.566 2°51.879 9.1 24 6.9 102150 43
2010-10-18 07:27 51°13.525 2°51.704 8.1 286 6.9 102150 42
2010-10-18 07:28 51°13.501 2°51.57 6.7 26 6.8 102160 42
2010-10-18 07:29 51°13.479 2°51.491 6.1 283 6.8 102160 43
2010-10-18 07:30 51°13.431 2°51.486 8.5 338 6.8 102170 43
2010-10-18 07:31 51°13.358 2°51.489 6.7 279 6.7 102160 43
2010-10-18 07:32 51°13.307 2°51.462 6.4 285 6.7 102160 42
2010-10-18 07:33 51°13.262 2°51.424 6.5 327 6.8 102160 45
2010-10-18 07:34 51°13.212 2°51.408 6.5 285 6.7 102160 43
2010-10-18 07:35 51°13.163 2°51.396 6.9 278 6.7 102160 42
2010-10-18 07:36 51°13.115 2°51.381 6 286 6.6 102160 44
2010-10-18 07:37 51°13.067 2°51.368 6.9 327 6.5 102160 43
2010-10-18 07:38 51°13.019 2°51.354 7.5 284 6.5 102160 44
2010-10-18 07:39 51°12.974 2°51.335 7.1 284 6.6 102160 45
2010-10-18 07:40 51°12.936 2°51.284 7.5 317 6.6 102160 45
2010-10-18 07:41 51°12.903 2°51.207 7.4 278 6.6 102160 43
2010-10-18 07:42 51°12.865 2°51.135 6.6 320 6.6 102160 43
2010-10-18 07:43 51°12.819 2°51.075 7 280 6.7 102160 42
2010-10-18 07:44 51°12.776 2°51.008 5.8 319 6.8 102160 45
2010-10-18 07:45 51°12.739 2°50.939 6.8 286 6.7 102160 44
2010-10-18 07:46 51°12.709 2°50.867 6.9 20 6.8 102160 43
2010-10-18 07:47 51°12.685 2°50.79 7.5 282 6.8 102160 43
2010-10-18 07:48 51°12.664 2°50.711 6.8 318 6.8 102150 42
2010-10-18 07:49 51°12.642 2°50.634 7.6 316 7 102150 44
2010-10-18 07:50 51°12.62 2°50.558 7.2 21 7.1 102150 43
2010-10-18 07:51 51°12.596 2°50.484 7 317 7.1 102150 42
2010-10-18 07:52 51°12.567 2°50.417 7 316 7.2 102150 42
2010-10-18 07:53 51°12.539 2°50.349 6.3 317 7.2 102150 41
2010-10-18 07:54 51°12.51 2°50.281 7.8 318 7.2 102150 41
2010-10-18 07:55 51°12.481 2°50.215 8.6 322 7.3 102150 42
2010-10-18 07:56 51°12.453 2°50.149 6.3 319 7.3 102160 42
2010-10-18 07:57 51°12.425 2°50.082 8.6 318 7.3 102160 41
2010-10-18 07:58 51°12.397 2°50.016 7.8 320 7.4 102160 42
2010-10-18 07:59 51°12.368 2°49.95 7.8 279 7.4 102160 39
2010-10-18 08:00 51°12.34 2°49.883 8.1 323 7.4 102160 41
2010-10-18 08:01 51°12.312 2°49.817 8.1 324 7.4 102160 40
2010-10-18 08:02 51°12.284 2°49.751 6.9 322 7.5 102150 42
2010-10-18 08:03 51°12.256 2°49.687 8.1 319 7.6 102150 41
2010-10-18 08:04 51°12.229 2°49.622 7.1 320 7.6 102160 40
2010-10-18 08:05 51°12.202 2°49.556 8.2 321 7.6 102160 41
2010-10-18 08:06 51°12.174 2°49.49 6.8 318 7.7 102160 41
2010-10-18 08:07 51°12.162 2°49.414 7.5 21 7.7 102160 40
2010-10-18 08:08 51°12.173 2°49.33 7.2 23 7.8 102150 41
2010-10-18 08:09 51°12.206 2°49.254 5.7 19 7.9 102160 41
2010-10-18 08:10 51°12.265 2°49.209 4.3 266 8 102170 41
2010-10-18 08:11 51°12.338 2°49.21 3.8 18 8.1 102170 40
2010-10-18 08:12 51°12.405 2°49.266 3.6 27 8.1 102160 42
2010-10-18 08:13 51°12.452 2°49.344 4.2 40 8.2 102160 40
2010-10-18 08:14 51°12.485 2°49.421 5.3 34 8.2 102160 41
2010-10-18 08:15 51°12.505 2°49.489 3.8 33 8.3 102160 39
2010-10-18 08:16 51°12.52 2°49.548 5.5 29 8.3 102150 41
2010-10-18 08:17 51°12.534 2°49.601 5.6 26 8.3 102150 41
2010-10-18 08:18 51°12.545 2°49.664 5.2 21 8.3 102150 42
2010-10-18 08:19 51°12.609 2°49.807 0.1 13 8.3 102160 42
2010-10-18 08:20 51°12.747 2°50.087 3.1 8 8.4 102160 40
2010-10-18 08:21 51°12.874 2°50.407 2.9 5 8.4 102160 42
2010-10-18 08:22 51°12.989 2°50.738 2.9 5 8.4 102160 41
2010-10-18 08:23 51°13.105 2°51.068 3.3 15 8.5 102160 40
2010-10-18 08:24 51°13.242 2°51.377 1.3 1 8.4 102160 41
2010-10-18 08:25 51°13.38 2°51.583 2.1 270 8.4 102160 41
2010-10-18 08:26 51°13.459 2°51.549 7 27 8.4 102160 41
2010-10-18 08:27 51°13.486 2°51.506 6.5 28 8.5 102150 41
2010-10-18 08:28 51°13.504 2°51.54 6.1 249 8.5 102150 41
2010-10-18 08:29 51°13.521 2°51.582 6.6 258 8.6 102160 43
2010-10-18 08:30 51°13.536 2°51.621 4.2 264 8.7 102160 42
2010-10-18 08:31 51°13.552 2°51.66 5.9 270 8.7 102170 41
2010-10-18 08:32 51°13.568 2°51.7 4.9 28 8.7 102170 41
2010-10-18 08:33 51°13.585 2°51.739 4.8 28 8.7 102170 43
2010-10-18 08:34 51°13.603 2°51.777 5.3 28 8.6 102180 41
2010-10-18 08:35 51°13.623 2°51.816 5.4 21 8.6 102170 42
2010-10-18 08:36 51°13.659 2°51.852 4.7 22 8.7 102170 41
2010-10-18 08:37 51°13.703 2°51.91 5.5 42 8.7 102160 41
2010-10-18 08:38 51°13.748 2°52.039 3 32 8.7 102150 42
2010-10-18 08:39 51°13.828 2°52.267 3.6 19 8.8 102160 40
2010-10-18 08:40 51°13.926 2°52.574 3.1 16 8.8 102150 40
2010-10-18 08:41 51°14.036 2°52.915 4.5 356 8.8 102150 40
2010-10-18 08:42 51°14.152 2°53.249 2.8 5 8.8 102160 43
2010-10-18 08:43 51°14.289 2°53.561 3.5 8 8.7 102160 42
2010-10-18 08:44 51°14.472 2°53.809 -999 356 8.6 102160 40
2010-10-18 08:45 51°14.698 2°53.868 4 26 8.6 102160 41
2010-10-18 08:46 51°14.915 2°53.786 6.7 22 8.7 102150 41
2010-10-18 08:47 51°15.12 2°53.654 5.9 24 8.8 102140 41
2010-10-18 08:48 51°15.329 2°53.534 5.9 246 9 102140 43
2010-10-18 08:49 51°15.541 2°53.424 6.9 22 9.1 102140 42
2010-10-18 08:50 51°15.755 2°53.318 6 244 9.3 102150 42
2010-10-18 08:51 51°15.966 2°53.204 6.8 20 9.4 102140 43
2010-10-18 08:52 51°16.177 2°53.094 6.3 20 9.6 102140 43
2010-10-18 08:53 51°16.389 2°52.985 6.6 18 9.7 102140 42
2010-10-18 08:54 51°16.603 2°52.88 8 247 9.8 102130 43
2010-10-18 08:55 51°16.815 2°52.771 7 20 9.9 102140 41
2010-10-18 08:56 51°17.028 2°52.658 7.3 23 10 102130 42
2010-10-18 08:57 51°17.241 2°52.545 6.6 245 10.1 102120 44
2010-10-18 08:58 51°17.455 2°52.431 8 246 10.1 102130 43
2010-10-18 08:59 51°17.669 2°52.317 8 20 10.2 102120 42
2010-10-18 09:00 51°17.881 2°52.199 7.8 20 10.2 102120 42
2010-10-18 09:01 51°18.094 2°52.081 8.4 250 10.3 102130 44
2010-10-18 09:02 51°18.306 2°51.965 7.8 20 10.4 102110 43
2010-10-18 09:03 51°18.52 2°51.852 7.5 250 10.3 102120 43
2010-10-18 09:04 51°18.733 2°51.738 8.3 20 10.5 102110 44
2010-10-18 09:05 51°18.948 2°51.626 6.5 252 10.5 102110 44
2010-10-18 09:06 51°19.16 2°51.51 8.2 21 10.5 102120 43
2010-10-18 09:07 51°19.373 2°51.397 7.9 249 10.5 102110 44
2010-10-18 09:08 51°19.584 2°51.279 7.8 23 10.6 102120 44
2010-10-18 09:09 51°19.794 2°51.165 8.5 20 10.7 102110 44
2010-10-18 09:10 51°20.003 2°51.051 7.7 253 10.7 102110 45
2010-10-18 09:11 51°20.213 2°50.935 8.3 250 10.8 102110 43
2010-10-18 09:12 51°20.419 2°50.814 9.2 245 10.9 102090 44
2010-10-18 09:13 51°20.574 2°50.587 10.7 23 10.8 102080 44
2010-10-18 09:14 51°20.718 2°50.341 11.3 22 10.8 102070 44
2010-10-18 09:15 51°20.874 2°50.109 10.1 25 10.9 102070 45
2010-10-18 09:16 51°21.013 2°49.857 10.6 28 10.9 102060 44
2010-10-18 09:17 51°21.127 2°49.579 11.5 26 10.9 102060 44
2010-10-18 09:18 51°21.251 2°49.308 11.7 19 10.9 102070 44
2010-10-18 09:19 51°21.385 2°49.046 12.3 26 10.9 102070 43
2010-10-18 09:20 51°21.552 2°48.841 8.5 250 10.9 102080 43
2010-10-18 09:21 51°21.768 2°48.763 6.1 257 10.9 102090 43
2010-10-18 09:22 51°21.996 2°48.769 3.2 262 11 102090 45
2010-10-18 09:23 51°22.224 2°48.781 3.3 260 11.1 102090 44
2010-10-18 09:24 51°22.452 2°48.792 2.6 263 11.2 102080 45
2010-10-18 09:25 51°22.683 2°48.81 6.5 256 11.2 102080 44
2010-10-18 09:26 51°22.916 2°48.822 4.3 260 11.1 102080 41
2010-10-18 09:27 51°23.148 2°48.833 4.7 257 11.1 102080 41
2010-10-18 09:28 51°23.381 2°48.846 3 262 11.2 102070 42
2010-10-18 09:29 51°23.614 2°48.858 4.2 263 11.2 102070 43
2010-10-18 09:30 51°23.845 2°48.876 4 262 11.2 102080 42
2010-10-18 09:31 51°24.074 2°48.883 6.6 256 11.2 102070 44
2010-10-18 09:32 51°24.304 2°48.904 4.4 258 11.3 102070 43
2010-10-18 09:33 51°24.532 2°48.905 5 255 11.4 102060 45
2010-10-18 09:34 51°24.758 2°48.886 7.4 249 11.5 102070 43
2010-10-18 09:35 51°24.883 2°48.789 9.4 26 11.4 102060 43
2010-10-18 09:36 51°24.9 2°48.659 10.4 27 11.4 102050 42
2010-10-18 09:37 51°24.922 2°48.516 10.9 21 11.3 102050 43
2010-10-18 09:38 51°24.951 2°48.393 9.7 26 11.2 102050 43
2010-10-18 09:39 51°24.984 2°48.373 5.5 261 11.2 102060 43
2010-10-18 09:40 51°25.008 2°48.408 6.8 23 11.3 102050 44
2010-10-18 09:41 51°25.034 2°48.444 6.2 267 11.4 102060 45
2010-10-18 09:42 51°25.059 2°48.48 6 265 11.3 102060 44
2010-10-18 09:43 51°25.083 2°48.521 5.7 265 11.2 102060 43
2010-10-18 09:44 51°25.107 2°48.562 7.7 268 11.3 102060 45
2010-10-18 09:45 51°25.129 2°48.604 8.6 260 11.3 102050 44
2010-10-18 09:46 51°25.152 2°48.646 7.4 270 11.3 102050 43
2010-10-18 09:47 51°25.175 2°48.689 7.1 262 11.4 102050 43
2010-10-18 09:48 51°25.197 2°48.733 5.8 264 11.4 102050 44
2010-10-18 09:49 51°25.219 2°48.778 7.6 270 11.3 102060 43
2010-10-18 09:50 51°25.242 2°48.822 9.2 270 11.3 102060 43
2010-10-18 09:51 51°25.268 2°48.864 6.1 264 11.2 102060 42
2010-10-18 09:52 51°25.362 2°48.777 9.2 247 11.2 102050 44
2010-10-18 09:53 51°25.496 2°48.54 12.7 19 11.2 102030 44
2010-10-18 09:54 51°25.529 2°48.353 9.5 323 11.2 102020 42
2010-10-18 09:55 51°25.492 2°48.341 10.7 348 11.2 102030 44
2010-10-18 09:56 51°25.418 2°48.365 11.4 345 11.1 102020 44
2010-10-18 09:57 51°25.373 2°48.356 8.8 334 11.1 102030 44
2010-10-18 09:58 51°25.343 2°48.33 9.1 327 11 102040 43
2010-10-18 09:59 51°25.309 2°48.281 9.3 331 11.1 102040 43
2010-10-18 10:00 51°25.262 2°48.229 10.8 323 11.2 102030 43
2010-10-18 10:01 51°25.24 2°48.167 10.7 26 11.2 102030 44
2010-10-18 10:02 51°25.229 2°48.107 9.9 328 11.3 102030 44
2010-10-18 10:03 51°25.201 2°48.069 9 323 11.4 102030 44
2010-10-18 10:04 51°25.171 2°48.03 9.4 330 11.4 102030 45
2010-10-18 10:05 51°25.149 2°47.986 10.4 326 11.3 102030 43
2010-10-18 10:06 51°25.128 2°47.94 10.2 325 11.3 102020 44
2010-10-18 10:07 51°25.105 2°47.893 10.1 325 11.5 102030 46
2010-10-18 10:08 51°25.086 2°47.842 9.7 327 11.4 102030 44
2010-10-18 10:09 51°25.068 2°47.789 10.2 325 11.5 102020 44
2010-10-18 10:10 51°25.045 2°47.736 10.6 322 11.6 102030 45
2010-10-18 10:11 51°25.021 2°47.679 10.6 328 11.4 102020 43
2010-10-18 10:12 51°24.994 2°47.619 8.4 323 11.4 102030 43
2010-10-18 10:13 51°24.968 2°47.554 9.2 323 11.5 102020 44
2010-10-18 10:14 51°24.944 2°47.49 9.7 326 11.5 102020 43
2010-10-18 10:15 51°24.918 2°47.425 11.2 322 11.5 102010 44
2010-10-18 10:16 51°24.892 2°47.36 8.6 320 11.5 102020 44
2010-10-18 10:17 51°24.865 2°47.295 10 324 11.6 102010 45
2010-10-18 10:18 51°24.838 2°47.232 11 327 11.7 102020 45
2010-10-18 10:19 51°24.81 2°47.167 9.6 327 11.6 102020 44
2010-10-18 10:20 51°24.782 2°47.1 9.5 326 11.6 102020 44
2010-10-18 10:21 51°24.754 2°47.035 8.6 326 11.7 102020 45
2010-10-18 10:22 51°24.728 2°46.969 9.4 326 11.6 102020 45
2010-10-18 10:23 51°24.701 2°46.905 9.8 323 11.6 102020 44
2010-10-18 10:24 51°24.676 2°46.84 11.5 325 11.6 102010 44
2010-10-18 10:25 51°24.651 2°46.778 9.7 327 11.5 102010 43
2010-10-18 10:26 51°24.61 2°46.743 11.6 334 11.5 102030 44
2010-10-18 10:27 51°24.559 2°46.741 10.3 343 11.5 102010 43
2010-10-18 10:28 51°24.503 2°46.763 8.6 344 11.4 102010 45
2010-10-18 10:29 51°24.453 2°46.78 10 340 11.4 102010 46
2010-10-18 10:30 51°24.405 2°46.783 10.2 340 11.4 102010 44
2010-10-18 10:31 51°24.358 2°46.797 10.1 345 11.4 102020 44
2010-10-18 10:32 51°24.312 2°46.811 9 345 11.5 102010 46
2010-10-18 10:33 51°24.267 2°46.815 8.6 338 11.4 102020 45
2010-10-18 10:34 51°24.226 2°46.804 10.2 332 11.4 102010 44
2010-10-18 10:35 51°24.19 2°46.778 10 328 11.4 102000 45
2010-10-18 10:36 51°24.167 2°46.734 10 321 11.4 102000 45
2010-10-18 10:37 51°24.165 2°46.677 8.6 21 11.5 102000 44
2010-10-18 10:38 51°24.195 2°46.648 8.8 21 11.5 101990 44
2010-10-18 10:39 51°24.226 2°46.65 8.4 26 11.6 102000 46
2010-10-18 10:40 51°24.255 2°46.666 7.8 249 11.6 102010 45
2010-10-18 10:41 51°24.325 2°46.667 5.5 21 11.6 102010 43
2010-10-18 10:42 51°24.471 2°46.786 3.7 29 11.5 102020 45
2010-10-18 10:43 51°24.655 2°46.963 2.3 29 11.5 102020 45
2010-10-18 10:44 51°24.844 2°47.175 0.2 28 11.6 102020 44
2010-10-18 10:45 51°25.023 2°47.41 0.1 22 11.7 102020 46
2010-10-18 10:46 51°25.203 2°47.647 -999 23 11.6 102020 44
2010-10-18 10:47 51°25.383 2°47.879 0.1 24 11.7 102020 44
2010-10-18 10:48 51°25.562 2°48.111 0.1 28 11.8 102010 44
2010-10-18 10:49 51°25.743 2°48.342 -999 26 11.8 102010 44
2010-10-18 10:50 51°25.92 2°48.573 0.3 22 11.8 102010 44
2010-10-18 10:51 51°26.1 2°48.806 0.2 82 11.9 102010 44
2010-10-18 10:52 51°26.282 2°49.031 0.1 23 11.8 102000 44
2010-10-18 10:53 51°26.461 2°49.264 1.9 20 11.9 102010 45
2010-10-18 10:54 51°26.641 2°49.491 1.5 83 11.7 102010 44
2010-10-18 10:55 51°26.822 2°49.716 1.1 28 11.6 102000 43
2010-10-18 10:56 51°27.006 2°49.942 3 24 11.7 102010 45
2010-10-18 10:57 51°27.185 2°50.175 2.1 21 11.9 102000 47
2010-10-18 10:58 51°27.365 2°50.403 2.3 27 11.9 102000 45
2010-10-18 10:59 51°27.544 2°50.622 2.2 27 12 102000 44
2010-10-18 11:00 51°27.722 2°50.846 0.2 78 11.9 101990 43
2010-10-18 11:01 51°27.902 2°51.077 0.3 26 12 101990 45
2010-10-18 11:02 51°28.087 2°51.306 0.1 44 11.9 101980 44
2010-10-18 11:03 51°28.26 2°51.546 2.1 76 12 101990 44
2010-10-18 11:04 51°28.411 2°51.828 3.8 42 12 101980 45
2010-10-18 11:05 51°28.559 2°52.114 4.8 41 12 101980 45
2010-10-18 11:06 51°28.705 2°52.398 1.9 41 11.9 101980 44
2010-10-18 11:07 51°28.855 2°52.673 3.2 76 11.8 101970 45
2010-10-18 11:08 51°29.003 2°52.953 1.5 20 11.8 101970 45
2010-10-18 11:09 51°29.154 2°53.228 1.1 20 11.9 101960 45
2010-10-18 11:10 51°29.302 2°53.505 3.3 22 12 101960 45
2010-10-18 11:11 51°29.451 2°53.779 2.7 28 12.1 101970 43
2010-10-18 11:12 51°29.604 2°54.053 2.6 77 12.1 101960 45
2010-10-18 11:13 51°29.753 2°54.336 2.6 36 12.1 101960 44
2010-10-18 11:14 51°29.902 2°54.606 3.7 76 12.1 101960 44
2010-10-18 11:15 51°30.059 2°54.875 2.2 20 12.1 101950 45
2010-10-18 11:16 51°30.218 2°55.137 0.3 36 12.2 101960 43
2010-10-18 11:17 51°30.368 2°55.413 2.3 22 12.1 101960 45
2010-10-18 11:18 51°30.519 2°55.69 3.6 42 12.2 101950 46
2010-10-18 11:19 51°30.673 2°55.965 2.7 22 12.2 101960 44
2010-10-18 11:20 51°30.828 2°56.247 3.2 29 12.2 101950 47
2010-10-18 11:21 51°30.984 2°56.533 2.5 40 12 101960 45
2010-10-18 11:22 51°31.134 2°56.809 2.8 81 12.1 101950 46
2010-10-18 11:23 51°31.288 2°57.088 1.1 41 12 101960 45
2010-10-18 11:24 51°31.438 2°57.368 3.6 37 12.1 101950 47
2010-10-18 11:25 51°31.592 2°57.651 1.9 76 12.1 101950 46
2010-10-18 11:26 51°31.75 2°57.934 3 22 12.1 101950 46
2010-10-18 11:27 51°31.907 2°58.203 2.9 26 12 101950 46
2010-10-18 11:28 51°32.065 2°58.464 2.7 25 12.1 101950 44
2010-10-18 11:29 51°32.222 2°58.728 2.4 75 12.1 101940 46
2010-10-18 11:30 51°32.37 2°59.011 3.3 19 12.2 101950 45
2010-10-18 11:31 51°32.52 2°59.285 2.7 21 12.3 101940 47
2010-10-18 11:32 51°32.682 2°59.544 1.3 19 12.4 101940 46
2010-10-18 11:33 51°32.859 2°59.769 3.9 22 12.5 101940 45
2010-10-18 11:34 51°33.053 2°59.947 4.3 21 12.3 101920 46
2010-10-18 11:35 51°33.258 3°0.118 3.4 18 12.2 101940 44
2010-10-18 11:36 51°33.469 3°0.254 4.4 24 12.2 101920 44
2010-10-18 11:37 51°33.687 3°0.362 3.6 267 12.2 101920 44
2010-10-18 11:38 51°33.908 3°0.455 4.5 25 12.4 101910 47
2010-10-18 11:39 51°34.126 3°0.566 4.1 265 12.3 101900 44
2010-10-18 11:40 51°34.342 3°0.526 10.5 252 12.4 101890 46
2010-10-18 11:41 51°34.478 3°0.438 9.7 253 12.4 101890 46
2010-10-18 11:42 51°34.555 3°0.373 12.7 254 12.5 101870 47
2010-10-18 11:43 51°34.598 3°0.345 10.2 256 12.6 101870 46
2010-10-18 11:44 51°34.626 3°0.359 10.7 253 12.6 101880 46
2010-10-18 11:45 51°34.653 3°0.382 6.7 281 12.6 101880 47
2010-10-18 11:46 51°34.678 3°0.411 7.3 262 12.6 101880 46
2010-10-18 11:47 51°34.702 3°0.443 8.1 269 12.5 101880 46
2010-10-18 11:48 51°34.725 3°0.475 7.3 267 12.4 101880 45
2010-10-18 11:49 51°34.748 3°0.504 8.4 269 12.4 101880 48
2010-10-18 11:50 51°34.773 3°0.533 8.8 270 12.3 101880 47
2010-10-18 11:51 51°34.797 3°0.562 8 268 12.3 101890 45
2010-10-18 11:52 51°34.842 3°0.576 7.4 19 12.3 101890 46
2010-10-18 11:53 51°34.904 3°0.648 8 40 12.3 101910 47
2010-10-18 11:54 51°34.903 3°0.752 11.2 9 12.4 101900 47
2010-10-18 11:55 51°34.845 3°0.804 11.2 355 12.2 101870 45
2010-10-18 11:56 51°34.704 3°0.845 14.9 347 12.1 101870 45
2010-10-18 11:57 51°34.513 3°0.833 14.1 343 12.1 101880 46
2010-10-18 11:58 51°34.322 3°0.84 13.1 346 12.1 101880 47
2010-10-18 11:59 51°34.133 3°0.852 15.1 345 12.1 101870 45
2010-10-18 12:00 51°33.945 3°0.867 15.3 348 12 101870 45
2010-10-18 12:01 51°33.759 3°0.885 14 344 12 101870 46
2010-10-18 12:02 51°33.568 3°0.903 14.8 348 12 101870 45
2010-10-18 12:03 51°33.373 3°0.916 13.6 346 12 101870 47
2010-10-18 12:04 51°33.178 3°0.934 15.4 343 12.2 101870 48
2010-10-18 12:05 51°32.984 3°0.951 14.7 344 12.1 101850 46
2010-10-18 12:06 51°32.789 3°0.963 13.8 342 12.2 101870 47
2010-10-18 12:07 51°32.592 3°0.977 14.5 341 12.1 101860 46
2010-10-18 12:08 51°32.398 3°0.992 15 341 12.2 101860 47
2010-10-18 12:09 51°32.203 3°1.003 12.8 341 12.1 101850 47
2010-10-18 12:10 51°32.008 3°1.014 15.3 342 12.2 101860 47
2010-10-18 12:11 51°31.811 3°1.025 15.3 343 12.1 101870 46
2010-10-18 12:12 51°31.615 3°1.036 14.1 342 12 101850 46
2010-10-18 12:13 51°31.417 3°1.043 14.1 343 12.1 101870 46
2010-10-18 12:14 51°31.219 3°1.05 15.8 343 12 101860 46
2010-10-18 12:15 51°31.02 3°1.056 14.1 344 12.1 101850 46
2010-10-18 12:16 51°30.825 3°1.101 13.6 350 12.1 101850 46
2010-10-18 12:17 51°30.644 3°1.247 13.2 355 12.2 101850 48
2010-10-18 12:18 51°30.472 3°1.423 12.6 356 12.1 101860 46
2010-10-18 12:19 51°30.295 3°1.585 13.3 354 12.1 101850 45
2010-10-18 12:20 51°30.114 3°1.742 12.9 355 12 101840 44
2010-10-18 12:21 51°29.934 3°1.9 12 352 12.1 101850 47
2010-10-18 12:22 51°29.756 3°2.058 11.8 352 12.1 101850 46
2010-10-18 12:23 51°29.574 3°2.208 13.5 353 12.1 101850 47
2010-10-18 12:24 51°29.392 3°2.354 12.3 353 12.1 101840 45
2010-10-18 12:25 51°29.211 3°2.497 14 354 12.1 101860 46
2010-10-18 12:26 51°29.032 3°2.649 13.1 354 12.1 101850 46
2010-10-18 12:27 51°28.851 3°2.798 12.4 354 12.1 101840 45
2010-10-18 12:28 51°28.671 3°2.948 13.6 355 12 101840 46
2010-10-18 12:29 51°28.489 3°3.094 14.2 354 12 101840 46
2010-10-18 12:30 51°28.313 3°3.258 13.7 354 12 101830 44
2010-10-18 12:31 51°28.156 3°3.476 12.3 359 12 101840 46
2010-10-18 12:32 51°28.003 3°3.706 13.8 358 12 101830 47
2010-10-18 12:33 51°27.846 3°3.924 12.6 358 12 101840 45
2010-10-18 12:34 51°27.691 3°4.141 12.4 357 12 101830 46
2010-10-18 12:35 51°27.534 3°4.351 13.1 357 12 101820 45
2010-10-18 12:36 51°27.371 3°4.546 11.9 355 12 101830 46
2010-10-18 12:37 51°27.209 3°4.742 13.5 360 12 101830 45
2010-10-18 12:38 51°27.046 3°4.942 11.3 355 12 101830 46
2010-10-18 12:39 51°26.885 3°5.143 13 354 12.1 101820 46
2010-10-18 12:40 51°26.724 3°5.341 14.5 356 12.1 101830 46
2010-10-18 12:41 51°26.565 3°5.541 11.2 357 12 101820 45
2010-10-18 12:42 51°26.407 3°5.741 11.8 359 12 101830 45
2010-10-18 12:43 51°26.247 3°5.939 13.7 358 12 101830 46
2010-10-18 12:44 51°26.087 3°6.137 13.2 355 12 101830 46
2010-10-18 12:45 51°25.93 3°6.336 12.4 358 12 101830 45
2010-10-18 12:46 51°25.771 3°6.532 13.9 356 12 101830 45
2010-10-18 12:47 51°25.61 3°6.726 12.8 359 12 101830 44
2010-10-18 12:48 51°25.449 3°6.92 13.7 358 12 101830 44
2010-10-18 12:49 51°25.289 3°7.115 13 353 12 101830 45
2010-10-18 12:50 51°25.128 3°7.307 11 354 12 101830 45
2010-10-18 12:51 51°24.972 3°7.508 10.9 1 12 101820 44
2010-10-18 12:52 51°24.824 3°7.725 8.6 4 12.1 101830 44
2010-10-18 12:53 51°24.689 3°7.966 8.8 4 12.1 101830 44
2010-10-18 12:54 51°24.554 3°8.207 10 5 12.1 101840 44
2010-10-18 12:55 51°24.425 3°8.455 10.6 360 12.1 101840 45
2010-10-18 12:56 51°24.292 3°8.706 9.1 3 12.1 101830 46
2010-10-18 12:57 51°24.16 3°8.964 8.8 2 12.1 101830 45
2010-10-18 12:58 51°24.05 3°9.246 10.9 10 12.2 101840 45
2010-10-18 12:59 51°23.997 3°9.572 8.7 9 12.1 101850 45
2010-10-18 13:00 51°23.953 3°9.902 8.3 11 12.2 101840 45
2010-10-18 13:01 51°23.941 3°10.246 6.9 20 12.2 101850 46
2010-10-18 13:02 51°23.956 3°10.59 6.1 22 12.2 101850 44
2010-10-18 13:03 51°23.982 3°10.936 7 15 12.2 101850 43
2010-10-18 13:04 51°24.009 3°11.274 5.7 27 12.2 101850 45
2010-10-18 13:05 51°24.051 3°11.609 6.4 24 12.3 101850 45
2010-10-18 13:06 51°24.094 3°11.938 6.5 23 12.2 101840 44
2010-10-18 13:07 51°24.13 3°12.272 6.9 18 12.2 101840 45
2010-10-18 13:08 51°24.151 3°12.603 7 19 12.2 101840 45
2010-10-18 13:09 51°24.17 3°12.933 5.7 25 12.2 101840 44
2010-10-18 13:10 51°24.188 3°13.257 5.5 27 12.3 101840 45
2010-10-18 13:11 51°24.274 3°13.545 3.6 24 12.3 101840 43
2010-10-18 13:12 51°24.312 3°13.698 7.9 26 12.3 101820 44
2010-10-18 13:13 51°24.285 3°13.752 10.3 13 12.3 101810 44
2010-10-18 13:14 51°24.249 3°13.755 10.5 344 12.4 101820 44
2010-10-18 13:15 51°24.194 3°13.697 9.2 335 12.3 101820 43
2010-10-18 13:16 51°24.136 3°13.598 11.9 326 12.4 101810 44
2010-10-18 13:17 51°24.112 3°13.515 11.1 319 12.5 101810 44
2010-10-18 13:18 51°24.099 3°13.44 8 321 12.4 101810 43
2010-10-18 13:19 51°24.093 3°13.368 9.2 28 12.5 101800 45
2010-10-18 13:20 51°24.102 3°13.293 9.9 23 12.5 101800 44
2010-10-18 13:21 51°24.105 3°13.22 9.2 316 12.5 101790 44
2010-10-18 13:22 51°24.1 3°13.146 9.6 323 12.5 101800 44
2010-10-18 13:23 51°24.084 3°13.062 10.4 325 12.5 101790 44
2010-10-18 13:24 51°24.064 3°12.975 10.1 326 12.4 101790 44
2010-10-18 13:25 51°24.044 3°12.885 9.7 324 12.5 101800 43
2010-10-18 13:26 51°24.027 3°12.791 9.7 319 12.4 101790 44
2010-10-18 13:27 51°24.016 3°12.691 9.5 318 12.5 101790 44
2010-10-18 13:28 51°24.005 3°12.594 11.4 317 12.5 101780 44
2010-10-18 13:29 51°23.998 3°12.492 10.9 317 12.5 101790 44
2010-10-18 13:30 51°23.99 3°12.393 10.2 319 12.6 101790 45
2010-10-18 13:31 51°23.982 3°12.295 11.4 318 12.5 101780 43
2010-10-18 13:32 51°23.976 3°12.196 11.4 319 12.6 101780 44
2010-10-18 13:33 51°23.968 3°12.098 10.3 317 12.5 101790 44
2010-10-18 13:34 51°23.962 3°11.998 9.7 317 12.6 101790 44
2010-10-18 13:35 51°23.958 3°11.895 10.1 316 12.6 101790 45
2010-10-18 13:36 51°23.955 3°11.795 10.5 26 12.6 101790 45
2010-10-18 13:37 51°23.957 3°11.695 9.3 28 12.5 101780 45
2010-10-18 13:38 51°23.96 3°11.595 9.5 26 12.5 101780 44
2010-10-18 13:39 51°23.963 3°11.496 10.3 322 12.5 101790 45
2010-10-18 13:40 51°23.96 3°11.4 11.5 20 12.5 101780 44
2010-10-18 13:41 51°23.958 3°11.304 7.9 29 12.5 101780 44
2010-10-18 13:42 51°23.954 3°11.205 10.2 23 12.6 101780 46
2010-10-18 13:43 51°23.95 3°11.109 10.3 20 12.5 101780 44
2010-10-18 13:44 51°23.946 3°11.014 10.8 319 12.5 101790 46
2010-10-18 13:45 51°23.938 3°10.921 10 317 12.4 101780 44
2010-10-18 13:46 51°23.923 3°10.831 8.7 324 12.5 101780 45
2010-10-18 13:47 51°23.897 3°10.749 9.3 323 12.4 101790 44
2010-10-18 13:48 51°23.87 3°10.669 9.2 323 12.4 101780 44
2010-10-18 13:49 51°23.84 3°10.598 10 333 12.4 101780 44
2010-10-18 13:50 51°23.797 3°10.556 11 349 12.5 101780 45
2010-10-18 13:51 51°23.747 3°10.555 8.2 359 12.4 101790 45
2010-10-18 13:52 51°23.695 3°10.568 9.3 357 12.4 101800 47
2010-10-18 13:53 51°23.643 3°10.559 8.5 343 12.4 101790 46
2010-10-18 13:54 51°23.597 3°10.527 9 346 12.2 101800 45
2010-10-18 13:55 51°23.554 3°10.483 9.7 333 12.2 101790 45
2010-10-18 13:56 51°23.523 3°10.411 9.6 324 12.3 101800 46
2010-10-18 13:57 51°23.508 3°10.315 11 22 12.2 101790 46
2010-10-18 13:58 51°23.525 3°10.237 9.3 250 12.3 101800 47
2010-10-18 13:59 51°23.547 3°10.19 10 248 12.2 101770 45
2010-10-18 14:00 51°23.565 3°10.154 10.5 254 12.2 101760 46
2010-10-18 14:01 51°23.588 3°10.114 9.3 261 12.2 101800 47
2010-10-18 14:02 51°23.648 3°10.1 5.6 29 12.2 101800 47
2010-10-18 14:03 51°23.655 3°10.197 8.8 11 12.1 101770 48
2010-10-18 14:04 51°23.544 3°10.307 11.1 1 12 101760 47
2010-10-18 14:05 51°23.388 3°10.506 9.1 5 11.9 101750 47
2010-10-18 14:06 51°23.262 3°10.763 7.7 1 11.8 101770 47
2010-10-18 14:07 51°23.129 3°11.02 7.9 360 11.7 101760 47
2010-10-18 14:08 51°22.992 3°11.27 11.8 358 11.8 101760 48
2010-10-18 14:09 51°22.825 3°11.471 12.4 354 11.8 101750 47
2010-10-18 14:10 51°22.641 3°11.579 11.7 350 11.8 101750 46
2010-10-18 14:11 51°22.496 3°11.558 9.6 334 11.9 101760 47
2010-10-18 14:12 51°22.461 3°11.458 7.8 21 12 101760 47
2010-10-18 14:13 51°22.462 3°11.422 7 259 12.1 101770 47
2010-10-18 14:14 51°22.462 3°11.408 5.3 263 12.1 101790 48
2010-10-18 14:15 51°22.463 3°11.397 5.9 267 12.1 101800 46
2010-10-18 14:16 51°22.466 3°11.387 8.5 270 12.1 101790 46
2010-10-18 14:17 51°22.468 3°11.379 9.1 12 12 101780 47
2010-10-18 14:18 51°22.47 3°11.37 7.5 26 12 101790 45
2010-10-18 14:19 51°22.472 3°11.361 7.8 30 12.1 101790 46
2010-10-18 14:20 51°22.472 3°11.353 7.3 28 12 101790 45
2010-10-18 14:21 51°22.479 3°11.342 6.6 269 12 101790 45
2010-10-18 14:22 51°22.549 3°11.254 9.2 251 12.1 101780 47
2010-10-18 14:23 51°22.674 3°11.073 10.6 243 12 101770 46
2010-10-18 14:24 51°22.701 3°10.758 12 27 12 101730 47
2010-10-18 14:25 51°22.687 3°10.399 14.4 22 12 101730 47
2010-10-18 14:26 51°22.628 3°10.055 13 320 12.1 101730 46
2010-10-18 14:27 51°22.54 3°9.73 13.6 320 12.1 101720 46
2010-10-18 14:28 51°22.457 3°9.396 13.3 318 12.2 101720 46
2010-10-18 14:29 51°22.389 3°9.053 12.9 321 12.3 101710 46
2010-10-18 14:30 51°22.324 3°8.709 12 315 12.3 101710 46
2010-10-18 14:31 51°22.261 3°8.363 13.3 318 12.4 101710 47
2010-10-18 14:32 51°22.196 3°8.016 13.8 318 12.4 101720 45
2010-10-18 14:33 51°22.131 3°7.67 13.7 321 12.4 101710 45
2010-10-18 14:34 51°22.065 3°7.326 14.8 322 12.5 101710 46
2010-10-18 14:35 51°21.989 3°6.991 16.8 320 12.5 101710 46
2010-10-18 14:36 51°21.897 3°6.668 14.7 322 12.5 101700 46
2010-10-18 14:37 51°21.806 3°6.347 14.4 325 12.5 101700 47
2010-10-18 14:38 51°21.716 3°6.025 14.9 323 12.4 101720 47
2010-10-18 14:39 51°21.625 3°5.703 15.2 326 12.3 101710 48
2010-10-18 14:40 51°21.535 3°5.382 15.3 323 12.2 101720 48
2010-10-18 14:41 51°21.444 3°5.061 15.2 321 12.1 101700 49
2010-10-18 14:42 51°21.357 3°4.738 14 324 12 101720 50
2010-10-18 14:43 51°21.277 3°4.408 13.9 321 12 101710 50
2010-10-18 14:44 51°21.196 3°4.079 13.9 323 12 101710 51
2010-10-18 14:45 51°21.114 3°3.751 15.7 323 12 101710 51
2010-10-18 14:46 51°21.033 3°3.423 14.6 319 12 101710 50
2010-10-18 14:47 51°20.954 3°3.098 15.5 322 12 101700 50
2010-10-18 14:48 51°20.874 3°2.774 13.8 322 12 101700 49
2010-10-18 14:49 51°20.793 3°2.447 13.7 321 12.1 101710 48
2010-10-18 14:50 51°20.712 3°2.122 15 321 12.1 101700 49
2010-10-18 14:51 51°20.631 3°1.798 15.3 323 12.1 101700 48
2010-10-18 14:52 51°20.55 3°1.476 14.7 319 12.2 101710 48
2010-10-18 14:53 51°20.469 3°1.153 12.9 322 12.2 101700 48
2010-10-18 14:54 51°20.388 3°0.83 14.6 321 12.2 101700 49
2010-10-18 14:55 51°20.307 3°0.509 13.4 320 12.3 101710 48
2010-10-18 14:56 51°20.225 3°0.189 15.8 323 12.3 101700 48
2010-10-18 14:57 51°20.145 2°59.869 14.5 322 12.3 101700 46
2010-10-18 14:58 51°20.066 2°59.551 12.3 319 12.4 101690 46
2010-10-18 14:59 51°19.984 2°59.233 13.5 322 12.5 101690 47
2010-10-18 15:00 51°19.902 2°58.914 12.3 322 12.5 101700 47
2010-10-18 15:01 51°19.821 2°58.594 12.4 323 12.5 101690 46
2010-10-18 15:02 51°19.738 2°58.276 13.6 321 12.4 101690 47
2010-10-18 15:03 51°19.656 2°57.956 14.5 322 12.4 101690 47
2010-10-18 15:04 51°19.573 2°57.638 12.2 322 12.4 101690 47
2010-10-18 15:05 51°19.49 2°57.318 12.6 321 12.4 101690 47
2010-10-18 15:06 51°19.406 2°56.998 14.1 320 12.5 101680 47
2010-10-18 15:07 51°19.321 2°56.679 12.6 324 12.4 101690 47
2010-10-18 15:08 51°19.235 2°56.358 11.2 324 12.4 101710 48
2010-10-18 15:09 51°19.149 2°56.035 10.4 324 12.2 101710 47
2010-10-18 15:10 51°19.063 2°55.713 9.7 326 12.2 101700 47
2010-10-18 15:11 51°18.975 2°55.389 10.2 324 12.2 101690 47
2010-10-18 15:12 51°18.887 2°55.065 10.6 325 12.2 101680 49
2010-10-18 15:13 51°18.799 2°54.743 11.5 323 12.3 101690 48
2010-10-18 15:14 51°18.713 2°54.421 12.6 323 12.4 101670 48
2010-10-18 15:15 51°18.626 2°54.101 11.4 320 12.4 101670 48
2010-10-18 15:16 51°18.54 2°53.782 12.5 321 12.6 101670 48
2010-10-18 15:17 51°18.454 2°53.467 14.5 322 12.7 101660 48
2010-10-18 15:18 51°18.369 2°53.154 15.3 325 12.7 101660 47
2010-10-18 15:19 51°18.279 2°52.842 13.8 325 12.8 101670 48
2010-10-18 15:20 51°18.152 2°52.568 14.7 330 12.8 101660 47
2010-10-18 15:21 51°17.993 2°52.338 14.3 335 12.9 101690 47
2010-10-18 15:22 51°17.803 2°52.196 14.6 343 12.9 101690 47
2010-10-18 15:23 51°17.593 2°52.226 13.9 351 12.8 101650 47
2010-10-18 15:24 51°17.387 2°52.308 14.2 353 12.8 101660 47
2010-10-18 15:25 51°17.19 2°52.431 11.7 356 12.8 101650 47
2010-10-18 15:26 51°17.004 2°52.59 11.6 357 12.7 101660 47
2010-10-18 15:27 51°16.815 2°52.737 14.4 358 12.8 101660 47
2010-10-18 15:28 51°16.617 2°52.858 13.5 351 12.8 101670 48
2010-10-18 15:29 51°16.417 2°52.973 12.7 352 12.7 101660 47
2010-10-18 15:30 51°16.219 2°53.093 10.6 356 12.8 101650 47
2010-10-18 15:31 51°16.035 2°53.261 12.6 355 12.7 101660 48
2010-10-18 15:32 51°15.865 2°53.459 11.9 358 12.7 101650 46
2010-10-18 15:33 51°15.705 2°53.675 13.4 357 12.8 101660 48
2010-10-18 15:34 51°15.537 2°53.877 11.8 358 12.7 101640 46
2010-10-18 15:35 51°15.373 2°54.082 12.7 358 12.7 101640 47
2010-10-18 15:36 51°15.207 2°54.288 11.7 357 12.6 101650 47
2010-10-18 15:37 51°15.036 2°54.483 10.9 353 12.6 101650 47
2010-10-18 15:38 51°14.86 2°54.676 10.2 355 12.5 101640 47
2010-10-18 15:39 51°14.682 2°54.857 10.9 353 12.5 101650 47
2010-10-18 15:40 51°14.507 2°55.043 11.5 354 12.4 101650 47
2010-10-18 15:41 51°14.345 2°55.23 9.4 349 12.4 101670 47
2010-10-18 15:42 51°14.196 2°55.362 5.8 342 12.3 101680 45
2010-10-18 15:43 51°14.06 2°55.464 6.7 350 12.3 101680 47
2010-10-18 15:44 51°13.948 2°55.546 5.7 336 12.3 101680 45
2010-10-18 15:45 51°13.845 2°55.622 4.7 339 12.3 101690 45
2010-10-18 15:46 51°13.762 2°55.715 4 351 12.3 101690 45
2010-10-18 15:47 51°13.71 2°55.822 4.1 8 12.3 101700 48
2010-10-18 15:48 51°13.672 2°55.922 3.8 334 12.3 101700 46
2010-10-18 15:49 51°13.661 2°55.96 0.4 354 12.2 101710 46
2010-10-18 15:50 51°13.661 2°55.96 0.2 8 12.2 101700 46